Terminal Aerodrome Forecast
Issued by NWS

Current Version | Previous Version | Text Only | Print | Product List | Glossary On
Versions: 1 2 3 4 5 6 7 8 9 10 11 12 13 14 15 16
000
FTUS43 KMPX 022300
TAFAXN
TAF
KAXN 022333Z 0300/0324 21008KT P6SM SCT250
     FM031200 19007KT P6SM VCSH SCT100 BKN200
     FM031700 16012KT P6SM -SHRA BKN050 OVC090 PROB30 0317/0322 4SM
      TSRA OVC040CB
     FM032200 16010KT P6SM VCSH BKN045=

USA.gov is the U.S. government's official web portal to all federal, state and local government web resources and services.